Findley Lake, New York
Current Conditions -  °F | °C
As of 10:51 PM on Saturday 25 Oct 2014 (Local Time) from KERI Reporting Station
Clear Clear  
Wind Chill: 59°   Ceiling: Unl
Heat Index: 59°   Visibility: 10mi
Dew Point: 39°   Wind: 12mph
Humidity: 48%   Direction: 310°NW
Pressure: 29.73"   Gusts: 26mph
Location:  42.12°N, 79.73°W
Report Text: KERI 260251Z 31010G23KT 10SM CLR 15/04 A2973 RMK AO2 SLP068 T01500039 53012
Loading
Personal Weather Stations






























Interactive Weather Map
Tropical Storm Tracking
New forecast layout! Learn more

10-Day Weather Forecast

Advertisements
Track Severe Weather on mobile